createdAt,value
2019-05-23T00:00:40.452Z,1031.29
2019-05-23T00:01:40.444Z,1031.23
2019-05-23T00:02:40.437Z,1031.24
2019-05-23T00:03:40.428Z,1031.24
2019-05-23T00:04:40.422Z,1031.22
2019-05-23T00:05:40.414Z,1031.26
2019-05-23T00:06:40.409Z,1031.24
2019-05-23T00:07:40.399Z,1031.22
2019-05-23T00:08:40.392Z,1031.21
2019-05-23T00:09:40.384Z,1031.27
2019-05-23T00:10:40.375Z,1031.28
2019-05-23T00:11:40.704Z,1031.29
2019-05-23T00:12:40.364Z,1031.32
2019-05-23T00:13:40.353Z,1031.33
2019-05-23T00:14:40.348Z,1031.34
2019-05-23T00:15:40.337Z,1031.34
2019-05-23T00:16:40.337Z,1031.36
2019-05-23T00:17:40.321Z,1031.34
2019-05-23T00:18:40.314Z,1031.34
2019-05-23T00:19:40.311Z,1031.36
2019-05-23T00:20:40.300Z,1031.39
2019-05-23T00:21:40.291Z,1031.36
2019-05-23T00:22:40.283Z,1031.37
2019-05-23T00:23:40.277Z,1031.36
2019-05-23T00:24:40.269Z,1031.4
2019-05-23T00:25:40.260Z,1031.43
2019-05-23T00:26:40.253Z,1031.42
2019-05-23T00:27:40.245Z,1031.39
2019-05-23T00:28:40.238Z,1031.39
2019-05-23T00:29:40.552Z,1031.44
2019-05-23T00:30:40.222Z,1031.38
2019-05-23T00:31:40.224Z,1031.42
2019-05-23T00:32:40.207Z,1031.44
2019-05-23T00:33:40.200Z,1031.49
2019-05-23T00:34:40.192Z,1031.43
2019-05-23T00:35:40.183Z,1031.46
2019-05-23T00:36:40.176Z,1031.5
2019-05-23T00:37:40.169Z,1031.47
2019-05-23T00:38:40.161Z,1031.5
2019-05-23T00:39:40.152Z,1031.54
2019-05-23T00:40:40.145Z,1031.54
2019-05-23T00:41:40.135Z,1031.53
2019-05-23T00:42:40.131Z,1031.52
2019-05-23T00:43:40.121Z,1031.55
2019-05-23T00:44:40.119Z,1031.55
2019-05-23T00:45:40.114Z,1031.53
2019-05-23T00:46:40.098Z,1031.56
2019-05-23T00:47:40.102Z,1031.57
2019-05-23T00:48:40.082Z,1031.56
2019-05-23T00:49:40.075Z,1031.56
2019-05-23T00:50:40.065Z,1031.61
2019-05-23T00:51:40.058Z,1031.64
2019-05-23T00:52:40.052Z,1031.64
2019-05-23T00:53:40.057Z,1031.7
2019-05-23T00:54:40.035Z,1031.69
2019-05-23T00:55:40.038Z,1031.69
2019-05-23T00:56:40.020Z,1031.69
2019-05-23T00:57:40.012Z,1031.65
2019-05-23T00:58:40.006Z,1031.66
2019-05-23T00:59:39.996Z,1031.68
2019-05-23T01:00:39.989Z,1031.69
2019-05-23T01:01:39.978Z,1031.62
2019-05-23T01:02:39.973Z,1031.63
2019-05-23T01:03:39.966Z,1031.7
2019-05-23T01:04:39.956Z,1031.67
2019-05-23T01:05:39.948Z,1031.67
2019-05-23T01:06:39.943Z,1031.68
2019-05-23T01:07:39.935Z,1031.66
2019-05-23T01:08:39.924Z,1031.71
2019-05-23T01:09:39.916Z,1031.69
2019-05-23T01:10:39.909Z,1031.69
2019-05-23T01:11:39.903Z,1031.67
2019-05-23T01:12:39.892Z,1031.73
2019-05-23T01:13:39.885Z,1031.73
2019-05-23T01:14:39.877Z,1031.71
2019-05-23T01:15:39.919Z,1031.71
2019-05-23T01:16:39.862Z,1031.72
2019-05-23T01:17:39.853Z,1031.72
2019-05-23T01:18:39.845Z,1031.7
2019-05-23T01:19:39.837Z,1031.71
2019-05-23T01:20:39.829Z,1031.68
2019-05-23T01:21:39.820Z,1031.68
2019-05-23T01:22:39.813Z,1031.71
2019-05-23T01:23:39.806Z,1031.69
2019-05-23T01:24:39.796Z,1031.69
2019-05-23T01:25:39.794Z,1031.68
2019-05-23T01:26:39.784Z,1031.65
2019-05-23T01:27:39.773Z,1031.67
2019-05-23T01:28:39.766Z,1031.68
2019-05-23T01:29:39.756Z,1031.69
2019-05-23T01:30:39.748Z,1031.66
2019-05-23T01:31:39.762Z,1031.63
2019-05-23T01:32:39.734Z,1031.63
2019-05-23T01:33:39.725Z,1031.65
2019-05-23T01:34:39.717Z,1031.63
2019-05-23T01:35:39.709Z,1031.64
2019-05-23T01:36:39.708Z,1031.67
2019-05-23T01:37:39.713Z,1031.66
2019-05-23T01:38:39.686Z,1031.66
2019-05-23T01:39:39.678Z,1031.7
2019-05-23T01:40:39.672Z,1031.71
2019-05-23T01:41:39.672Z,1031.74
2019-05-23T01:42:39.654Z,1031.76
2019-05-23T01:43:39.646Z,1031.75
2019-05-23T01:44:39.637Z,1031.77
2019-05-23T01:45:39.629Z,1031.76
2019-05-23T01:46:39.622Z,1031.76
2019-05-23T01:47:39.613Z,1031.74
2019-05-23T01:48:39.606Z,1031.75
2019-05-23T01:49:39.598Z,1031.76
2019-05-23T01:50:39.590Z,1031.73
2019-05-23T01:51:39.584Z,1031.72
2019-05-23T01:52:39.575Z,1031.73
2019-05-23T01:53:39.566Z,1031.75
2019-05-23T01:54:39.558Z,1031.73
2019-05-23T01:55:39.550Z,1031.68
2019-05-23T01:56:39.542Z,1031.75
2019-05-23T01:57:39.565Z,1031.74
2019-05-23T01:58:39.531Z,1031.74
2019-05-23T01:59:39.519Z,1031.71
2019-05-23T02:00:39.513Z,1031.72
2019-05-23T02:01:39.503Z,1031.7
2019-05-23T02:02:39.496Z,1031.77
2019-05-23T02:03:39.486Z,1031.78
2019-05-23T02:04:39.480Z,1031.79
2019-05-23T02:05:39.473Z,1031.81
2019-05-23T02:06:39.464Z,1031.82
2019-05-23T02:07:39.456Z,1031.83
2019-05-23T02:08:39.465Z,1031.8
2019-05-23T02:09:39.444Z,1031.8
2019-05-23T02:10:39.434Z,1031.83
2019-05-23T02:11:39.424Z,1031.8
2019-05-23T02:12:39.416Z,1031.75
2019-05-23T02:13:39.412Z,1031.78
2019-05-23T02:14:39.400Z,1031.78
2019-05-23T02:15:39.394Z,1031.76
2019-05-23T02:16:39.385Z,1031.77
2019-05-23T02:17:39.377Z,1031.77
2019-05-23T02:18:39.368Z,1031.76
2019-05-23T02:19:39.361Z,1031.75
2019-05-23T02:20:39.353Z,1031.77
2019-05-23T02:21:39.343Z,1031.73
2019-05-23T02:22:39.335Z,1031.79
2019-05-23T02:23:39.357Z,1031.76
2019-05-23T02:24:39.391Z,1031.79
2019-05-23T02:25:39.314Z,1031.82
2019-05-23T02:26:39.308Z,1031.83
2019-05-23T02:27:39.308Z,1031.76
2019-05-23T02:28:39.292Z,1031.8
2019-05-23T02:29:39.282Z,1031.79
2019-05-23T02:30:39.274Z,1031.78
2019-05-23T02:31:39.267Z,1031.78
2019-05-23T02:32:39.258Z,1031.79
2019-05-23T02:33:39.252Z,1031.79
2019-05-23T02:34:39.244Z,1031.74
2019-05-23T02:35:39.234Z,1031.74
2019-05-23T02:36:39.236Z,1031.75
2019-05-23T02:37:39.217Z,1031.76
2019-05-23T02:38:39.211Z,1031.78
2019-05-23T02:39:39.202Z,1031.82
2019-05-23T02:40:39.192Z,1031.81
2019-05-23T02:41:39.186Z,1031.82
2019-05-23T02:42:39.179Z,1031.86
2019-05-23T02:43:39.169Z,1031.85
2019-05-23T02:44:39.163Z,1031.83
2019-05-23T02:45:39.156Z,1031.83
2019-05-23T02:46:39.145Z,1031.86
2019-05-23T02:47:39.144Z,1031.85
2019-05-23T02:48:39.128Z,1031.87
2019-05-23T02:49:39.121Z,1031.86
2019-05-23T02:50:39.115Z,1031.86
2019-05-23T02:51:39.104Z,1031.92
2019-05-23T02:52:39.099Z,1031.87
2019-05-23T02:53:39.121Z,1031.87
2019-05-23T02:54:39.082Z,1031.88
2019-05-23T02:55:39.073Z,1031.9
2019-05-23T02:56:39.065Z,1031.9
2019-05-23T02:57:39.058Z,1031.93
2019-05-23T02:58:39.048Z,1031.95
2019-05-23T02:59:39.040Z,1031.97
2019-05-23T03:00:53.061Z,1031.94
2019-05-23T03:01:39.026Z,1031.97
2019-05-23T03:02:39.016Z,1031.98
2019-05-23T03:03:39.008Z,1031.97
2019-05-23T03:04:39.000Z,1031.96
2019-05-23T03:05:38.993Z,1031.98
2019-05-23T03:06:38.992Z,1031.98
2019-05-23T03:07:38.976Z,1031.95
2019-05-23T03:08:38.969Z,1031.91
2019-05-23T03:09:38.959Z,1031.97
2019-05-23T03:10:38.953Z,1031.94
2019-05-23T03:11:38.943Z,1031.93
2019-05-23T03:12:38.946Z,1031.93
2019-05-23T03:13:38.930Z,1031.93
2019-05-23T03:14:38.929Z,1031.93
2019-05-23T03:15:38.912Z,1031.93
2019-05-23T03:16:38.903Z,1031.88
2019-05-23T03:17:38.917Z,1031.9
2019-05-23T03:18:38.887Z,1031.91
2019-05-23T03:19:38.887Z,1031.9
2019-05-23T03:20:38.871Z,1031.9
2019-05-23T03:21:38.861Z,1031.89
2019-05-23T03:22:38.856Z,1031.91
2019-05-23T03:23:38.848Z,1031.92
2019-05-23T03:24:38.839Z,1031.92
2019-05-23T03:25:38.838Z,1031.89
2019-05-23T03:26:38.823Z,1031.87
2019-05-23T03:27:38.813Z,1031.89
2019-05-23T03:28:38.806Z,1031.92
2019-05-23T03:29:38.798Z,1031.89
2019-05-23T03:30:38.813Z,1031.87
2019-05-23T03:31:38.793Z,1031.89
2019-05-23T03:32:39.822Z,1031.87
2019-05-23T03:33:38.767Z,1031.88
2019-05-23T03:34:38.758Z,1031.89
2019-05-23T03:35:38.748Z,1031.89
2019-05-23T03:36:38.742Z,1031.9
2019-05-23T03:37:38.736Z,1031.91
2019-05-23T03:38:38.725Z,1031.92
2019-05-23T03:39:38.718Z,1031.9
2019-05-23T03:40:38.709Z,1031.92
2019-05-23T03:41:38.716Z,1031.91
2019-05-23T03:42:38.693Z,1031.9
2019-05-23T03:43:38.685Z,1031.96
2019-05-23T03:44:38.880Z,1031.95
2019-05-23T03:45:39.732Z,1031.95
2019-05-23T03:46:38.660Z,1031.95
2019-05-23T03:47:38.654Z,1031.94
2019-05-23T03:48:38.717Z,1031.92
2019-05-23T03:49:38.635Z,1031.93
2019-05-23T03:50:38.627Z,1031.93
2019-05-23T03:51:38.621Z,1031.93
2019-05-23T03:52:38.611Z,1031.93
2019-05-23T03:53:38.603Z,1031.94
2019-05-23T03:54:38.597Z,1031.94
2019-05-23T03:55:38.591Z,1031.93
2019-05-23T03:56:38.588Z,1031.93
2019-05-23T03:57:38.574Z,1031.95
2019-05-23T03:58:38.564Z,1031.91
2019-05-23T03:59:38.556Z,1031.93
2019-05-23T04:00:38.549Z,1031.9
2019-05-23T04:01:47.484Z,1031.9
2019-05-23T04:02:38.534Z,1031.92
2019-05-23T04:03:39.981Z,1031.92
2019-05-23T04:04:38.514Z,1031.9
2019-05-23T04:05:38.511Z,1031.9
2019-05-23T04:06:38.500Z,1031.85
2019-05-23T04:07:38.490Z,1031.84
2019-05-23T04:08:38.488Z,1031.82
2019-05-23T04:09:38.476Z,1031.8
2019-05-23T04:10:38.469Z,1031.79
2019-05-23T04:11:38.463Z,1031.8
2019-05-23T04:12:38.452Z,1031.76
2019-05-23T04:13:38.445Z,1031.77
2019-05-23T04:14:38.438Z,1031.72
2019-05-23T04:15:38.436Z,1031.7
2019-05-23T04:16:38.426Z,1031.71
2019-05-23T04:17:38.414Z,1031.69
2019-05-23T04:18:38.405Z,1031.67
2019-05-23T04:19:38.397Z,1031.7
2019-05-23T04:20:38.393Z,1031.65
2019-05-23T04:21:38.383Z,1031.67
2019-05-23T04:22:38.374Z,1031.68
2019-05-23T04:23:38.371Z,1031.63
2019-05-23T04:24:38.361Z,1031.59
2019-05-23T04:25:38.358Z,1031.63
2019-05-23T04:26:38.343Z,1031.62
2019-05-23T04:27:38.335Z,1031.61
2019-05-23T04:28:38.328Z,1031.6
2019-05-23T04:29:38.336Z,1031.57
2019-05-23T04:30:38.313Z,1031.58
2019-05-23T04:31:38.304Z,1031.56
2019-05-23T04:32:38.301Z,1031.59
2019-05-23T04:33:38.290Z,1031.58
2019-05-23T04:34:38.286Z,1031.6
2019-05-23T04:35:38.275Z,1031.58
2019-05-23T04:36:38.267Z,1031.59
2019-05-23T04:37:38.259Z,1031.6
2019-05-23T04:38:38.255Z,1031.57
2019-05-23T04:39:38.243Z,1031.58
2019-05-23T04:40:38.235Z,1031.55
2019-05-23T04:41:38.230Z,1031.54
2019-05-23T04:42:38.223Z,1031.5
2019-05-23T04:43:38.216Z,1031.54
2019-05-23T04:44:38.208Z,1031.49
2019-05-23T04:45:38.201Z,1031.53
2019-05-23T04:46:38.193Z,1031.55
2019-05-23T04:47:38.186Z,1031.54
2019-05-23T04:48:38.178Z,1031.53
2019-05-23T04:49:38.170Z,1031.54
2019-05-23T04:50:38.165Z,1031.59
2019-05-23T04:51:38.154Z,1031.58
2019-05-23T04:52:38.147Z,1031.57
2019-05-23T04:53:38.146Z,1031.61
2019-05-23T04:54:38.135Z,1031.66
2019-05-23T04:55:38.141Z,1031.64
2019-05-23T04:56:38.129Z,1031.66
2019-05-23T04:57:38.113Z,1031.69
2019-05-23T04:58:38.105Z,1031.67
2019-05-23T04:59:38.101Z,1031.69
2019-05-23T05:00:38.092Z,1031.71
2019-05-23T05:01:38.083Z,1031.79
2019-05-23T05:02:38.074Z,1031.69
2019-05-23T05:03:38.067Z,1031.65
2019-05-23T05:04:38.067Z,1031.69
2019-05-23T05:05:38.055Z,1031.6
2019-05-23T05:06:38.047Z,1030.82
2019-05-23T05:07:38.041Z,1030.56
2019-05-23T05:08:38.035Z,1030.57
2019-05-23T05:09:38.030Z,1030.6
2019-05-23T05:10:38.021Z,1030.68
2019-05-23T05:11:38.014Z,1030.59
2019-05-23T05:12:38.008Z,1030.52
2019-05-23T05:13:38.001Z,1030.28
2019-05-23T05:14:37.993Z,1030.28
2019-05-23T05:15:37.988Z,1030.22
2019-05-23T05:16:37.982Z,1030.29
2019-05-23T05:17:37.976Z,1030.31
2019-05-23T05:18:37.971Z,1030.39
2019-05-23T05:19:37.965Z,1030.39
2019-05-23T05:20:37.958Z,1030.45
2019-05-23T05:21:37.959Z,1030.47
2019-05-23T05:22:37.950Z,1030.48
2019-05-23T05:23:37.942Z,1030.48
2019-05-23T05:24:40.177Z,1030.45
2019-05-23T05:25:37.933Z,1030.5
2019-05-23T05:26:37.925Z,1030.43
2019-05-23T05:27:37.921Z,1030.6
2019-05-23T05:28:37.920Z,1030.12
2019-05-23T05:29:37.908Z,1029.51
2019-05-23T05:30:37.904Z,1029.54
2019-05-23T05:31:37.898Z,1029.52
2019-05-23T05:32:44.499Z,1029.67
2019-05-23T05:33:37.890Z,1029.75
2019-05-23T05:34:37.884Z,1029.78
2019-05-23T05:35:37.879Z,1029.87
2019-05-23T05:36:37.875Z,1029.97
2019-05-23T05:37:37.870Z,1030.05
2019-05-23T05:38:37.865Z,1029.99
2019-05-23T05:39:37.863Z,1029.98
2019-05-23T05:40:37.861Z,1029.92
2019-05-23T05:41:37.862Z,1029.71
2019-05-23T05:42:37.852Z,1029.3
2019-05-23T05:43:37.842Z,1028.69
2019-05-23T05:44:37.837Z,1028.12
2019-05-23T05:45:37.866Z,1027.72
2019-05-23T05:46:37.834Z,1027.18
2019-05-23T05:47:37.828Z,1027.17
2019-05-23T05:48:37.833Z,1026.82
2019-05-23T05:49:38.807Z,1026.79
2019-05-23T05:50:37.822Z,1026.25
2019-05-23T05:51:37.819Z,1026.25
2019-05-23T05:52:37.820Z,1026.63
2019-05-23T05:53:37.814Z,1026.29
2019-05-23T05:54:37.816Z,1026.75
2019-05-23T05:55:37.814Z,1027.45
2019-05-23T05:56:37.814Z,1027.03
2019-05-23T05:57:37.822Z,1026.26
2019-05-23T05:58:37.816Z,1026.39
2019-05-23T05:59:37.816Z,1026.53
2019-05-23T06:00:37.844Z,1026.99
2019-05-23T06:01:37.822Z,1027.25
2019-05-23T06:02:37.819Z,1027.38
2019-05-23T06:03:37.822Z,1027.1
2019-05-23T06:04:37.823Z,1026.81
2019-05-23T06:05:37.825Z,1026.47
2019-05-23T06:06:37.826Z,1026.12
2019-05-23T06:07:37.830Z,1025.94
2019-05-23T06:08:37.834Z,1025.76
2019-05-23T06:09:37.839Z,1025.62
2019-05-23T06:10:37.839Z,1025.52
2019-05-23T06:11:37.844Z,1025.44
2019-05-23T06:12:37.846Z,1025.36
2019-05-23T06:13:37.859Z,1025.24
2019-05-23T06:14:37.860Z,1025.19
2019-05-23T06:15:37.862Z,1025.19
2019-05-23T06:16:37.884Z,1025.03
2019-05-23T06:17:37.875Z,1025.03
2019-05-23T06:18:37.881Z,1024.98
2019-05-23T06:19:37.888Z,1024.92
2019-05-23T06:20:40.706Z,1024.88
2019-05-23T06:21:37.904Z,1024.82
2019-05-23T06:22:37.911Z,1024.82
2019-05-23T06:23:37.947Z,1024.7
2019-05-23T06:24:45.849Z,1024.52
2019-05-23T06:25:37.933Z,1024.4
2019-05-23T06:26:37.942Z,1024.28
2019-05-23T06:27:37.956Z,1024.14
2019-05-23T06:28:37.960Z,1024.01
2019-05-23T06:29:37.970Z,1023.9
2019-05-23T06:31:37.988Z,1023.78
2019-05-23T06:33:38.007Z,1023.69
2019-05-23T06:34:38.021Z,1023.61
2019-05-23T06:36:38.036Z,1023.6
2019-05-23T06:37:38.047Z,1023.55
2019-05-23T06:38:38.060Z,1023.36
2019-05-23T06:39:38.069Z,1023.29
2019-05-23T06:40:38.082Z,1023.17
2019-05-23T06:41:38.087Z,1023.15
2019-05-23T06:42:38.100Z,1023.14
2019-05-23T06:43:38.113Z,1023.05
2019-05-23T06:44:38.128Z,1023
2019-05-23T06:45:38.138Z,1022.96
2019-05-23T06:47:38.161Z,1022.84
2019-05-23T06:48:38.171Z,1022.82
2019-05-23T06:49:38.184Z,1022.77
2019-05-23T06:50:38.198Z,1022.65
2019-05-23T06:51:38.210Z,1022.72
2019-05-23T06:52:38.232Z,1022.65
2019-05-23T06:53:38.234Z,1022.51
2019-05-23T06:54:38.249Z,1022.49
2019-05-23T06:55:38.263Z,1022.49
2019-05-23T06:56:38.286Z,1022.45
2019-05-23T06:57:38.287Z,1022.47
2019-05-23T06:58:38.311Z,1022.5
2019-05-23T06:59:38.312Z,1022.52
2019-05-23T07:00:38.329Z,1022.51
2019-05-23T07:01:38.343Z,1022.2
2019-05-23T07:02:38.357Z,1022.48
2019-05-23T07:03:42.863Z,1022.37
2019-05-23T07:04:38.385Z,1021.83
2019-05-23T07:05:38.400Z,1022.39
2019-05-23T07:06:38.468Z,1022.38
2019-05-23T07:07:38.516Z,1022.37
2019-05-23T07:08:38.456Z,1022.36
2019-05-23T07:09:38.457Z,1022.49
2019-05-23T07:10:38.471Z,1022.6
2019-05-23T07:11:38.492Z,1022.76
2019-05-23T07:12:38.503Z,1022.75
2019-05-23T07:13:38.533Z,1022.66
2019-05-23T07:14:38.533Z,1022.65
2019-05-23T07:15:38.543Z,1022.63
2019-05-23T07:16:38.559Z,1022.7
2019-05-23T07:17:38.575Z,1022.57
2019-05-23T07:18:38.590Z,1022.57
2019-05-23T07:19:38.604Z,1022.5
2019-05-23T07:20:38.618Z,1022.38
2019-05-23T07:21:38.633Z,1022.26
2019-05-23T07:22:38.661Z,1022.25
2019-05-23T07:23:38.664Z,1022.36
2019-05-23T07:24:55.148Z,1022.27
2019-05-23T07:25:38.693Z,1022.49
2019-05-23T07:26:51.447Z,1022.38
2019-05-23T07:27:38.745Z,1022.43
2019-05-23T07:28:38.744Z,1022.47
2019-05-23T07:30:38.767Z,1022.75
2019-05-23T07:31:38.783Z,1022.66
2019-05-23T07:32:38.800Z,1022.67
2019-05-23T07:33:38.813Z,1022.67
2019-05-23T07:34:38.828Z,1022.69
2019-05-23T07:35:38.866Z,1022.69
2019-05-23T07:36:38.857Z,1022.88
2019-05-23T07:37:38.988Z,1023.04
2019-05-23T07:38:38.958Z,1023.1
2019-05-23T07:39:38.901Z,1023.08
2019-05-23T07:40:38.918Z,1023.17
2019-05-23T07:41:38.931Z,1023.22
2019-05-23T07:42:38.946Z,1023.16
2019-05-23T07:43:38.964Z,1023.17
2019-05-23T07:44:47.746Z,1023.21
2019-05-23T07:45:39.823Z,1023.06
2019-05-23T07:46:39.009Z,1022.81
2019-05-23T07:47:40.141Z,1023.47
2019-05-23T07:48:39.031Z,1024.7
2019-05-23T07:49:39.050Z,1024
2019-05-23T07:50:39.081Z,1024.51
2019-05-23T07:51:39.075Z,1024.29
2019-05-23T07:52:39.084Z,1024.13
2019-05-23T07:53:39.119Z,1024.13
2019-05-23T07:54:39.117Z,1023.98
2019-05-23T07:55:39.132Z,1024.28
2019-05-23T07:56:39.137Z,1024.21
2019-05-23T07:57:39.150Z,1024.07
2019-05-23T07:58:39.163Z,1023.95
2019-05-23T07:59:39.176Z,1023.72
2019-05-23T08:00:39.190Z,1023.58
2019-05-23T08:01:39.230Z,1023.39
2019-05-23T08:02:39.275Z,1022.75
2019-05-23T08:03:39.229Z,1023.93
2019-05-23T08:04:39.243Z,1023.74
2019-05-23T08:05:39.257Z,1023.36
2019-05-23T08:06:39.270Z,1023.16
2019-05-23T08:07:39.284Z,1022.94
2019-05-23T08:08:39.295Z,1022.6
2019-05-23T08:09:39.314Z,1022.94
2019-05-23T08:10:39.408Z,1023.16
2019-05-23T08:11:39.336Z,1022.61
2019-05-23T08:12:39.352Z,1022.34
2019-05-23T08:13:39.363Z,1022.14
2019-05-23T08:14:39.395Z,1022.06
2019-05-23T08:15:39.451Z,1022.07
2019-05-23T08:16:39.405Z,1022.25
2019-05-23T08:17:39.425Z,1022
2019-05-23T08:18:39.433Z,1022.75
2019-05-23T08:19:48.818Z,1022.76
2019-05-23T08:20:39.472Z,1023.01
2019-05-23T08:21:39.488Z,1023.8
2019-05-23T08:22:39.490Z,1024.17
2019-05-23T08:23:39.503Z,1024.1
2019-05-23T08:24:39.518Z,1024.17
2019-05-23T08:25:39.530Z,1024.28
2019-05-23T08:26:39.543Z,1024.35
2019-05-23T08:27:39.565Z,1024.41
2019-05-23T08:28:56.571Z,1024.38
2019-05-23T08:29:39.580Z,1024.36
2019-05-23T08:30:39.593Z,1024.31
2019-05-23T08:31:39.605Z,1024.28
2019-05-23T08:32:39.620Z,1024.25
2019-05-23T08:33:39.630Z,1024.43
2019-05-23T08:34:41.836Z,1024.37
2019-05-23T08:35:39.653Z,1024.29
2019-05-23T08:36:39.665Z,1024.23
2019-05-23T08:37:39.677Z,1024.36
2019-05-23T08:38:39.688Z,1024.54
2019-05-23T08:39:39.701Z,1024.91
2019-05-23T08:40:39.712Z,1024.95
2019-05-23T08:41:39.721Z,1024.89
2019-05-23T08:42:39.731Z,1024.75
2019-05-23T08:43:39.743Z,1024.55
2019-05-23T08:44:39.769Z,1024.46
2019-05-23T08:45:39.765Z,1024.78
2019-05-23T08:46:39.775Z,1025.4
2019-05-23T08:47:39.787Z,1026.11
2019-05-23T08:48:39.797Z,1026.72
2019-05-23T08:49:39.805Z,1027.2
2019-05-23T08:50:39.815Z,1027.55
2019-05-23T08:51:39.826Z,1027.93
2019-05-23T08:52:39.835Z,1028.19
2019-05-23T08:53:39.843Z,1028.51
2019-05-23T08:54:39.853Z,1028.82
2019-05-23T08:55:39.865Z,1029.04
2019-05-23T08:56:39.897Z,1029.28
2019-05-23T08:57:39.874Z,1029.47
2019-05-23T08:58:39.883Z,1029.68
2019-05-23T08:59:39.891Z,1029.78
2019-05-23T09:00:39.897Z,1029.9
2019-05-23T09:01:39.901Z,1029.97
2019-05-23T09:02:39.908Z,1030.11
2019-05-23T09:03:39.911Z,1030.29
2019-05-23T09:04:39.918Z,1030.43
2019-05-23T09:05:39.921Z,1030.69
2019-05-23T09:06:39.975Z,1030.88
2019-05-23T09:07:39.929Z,1030.98
2019-05-23T09:08:39.932Z,1031.06
2019-05-23T09:10:39.936Z,1031.12
2019-05-23T09:11:39.938Z,1031.19
2019-05-23T09:12:39.942Z,1031.17
2019-05-23T09:13:39.942Z,1031.19
2019-05-23T09:14:39.942Z,1031.2
2019-05-23T09:15:39.944Z,1031.15
2019-05-23T09:16:39.945Z,1031.22
2019-05-23T09:17:51.926Z,1031.24
2019-05-23T09:18:39.946Z,1031.24
2019-05-23T09:19:39.945Z,1031.3
2019-05-23T09:20:39.951Z,1031.3
2019-05-23T09:21:39.946Z,1031.43
2019-05-23T09:22:39.945Z,1031.55
2019-05-23T09:23:39.947Z,1031.53
2019-05-23T09:24:39.945Z,1031.54
2019-05-23T09:25:39.944Z,1031.61
2019-05-23T09:26:39.943Z,1031.63
2019-05-23T09:27:39.943Z,1031.6
2019-05-23T09:28:39.947Z,1031.67
2019-05-23T09:29:39.940Z,1031.63
2019-05-23T09:30:39.957Z,1031.6
2019-05-23T09:31:39.940Z,1031.61
2019-05-23T09:32:39.937Z,1031.7
2019-05-23T09:33:39.938Z,1031.66
2019-05-23T09:34:39.935Z,1031.81
2019-05-23T09:35:39.933Z,1031.84
2019-05-23T09:36:39.930Z,1031.96
2019-05-23T09:37:39.931Z,1032.02
2019-05-23T09:38:39.928Z,1032.01
2019-05-23T09:39:39.927Z,1032.02
2019-05-23T09:40:39.923Z,1031.99
2019-05-23T09:41:39.923Z,1031.99
2019-05-23T09:43:39.919Z,1031.92
2019-05-23T09:44:39.917Z,1031.89
2019-05-23T09:45:39.913Z,1031.86
2019-05-23T09:46:39.913Z,1031.9
2019-05-23T09:47:39.910Z,1031.81
2019-05-23T09:48:39.906Z,1031.78
2019-05-23T09:49:39.906Z,1031.74
2019-05-23T09:50:39.903Z,1031.65
2019-05-23T09:51:39.900Z,1031.63
2019-05-23T09:52:39.898Z,1031.59
2019-05-23T09:53:39.904Z,1031.53
2019-05-23T09:54:39.904Z,1031.55
2019-05-23T09:55:39.896Z,1031.59
2019-05-23T09:56:39.891Z,1031.6
2019-05-23T09:57:39.889Z,1031.65
2019-05-23T09:58:39.885Z,1031.61
2019-05-23T09:59:39.904Z,1031.76
2019-05-23T10:00:39.882Z,1031.78
2019-05-23T10:01:39.912Z,1031.79
2019-05-23T10:02:39.877Z,1031.85
2019-05-23T10:03:39.875Z,1031.9
2019-05-23T10:04:39.899Z,1031.96
2019-05-23T10:05:43.101Z,1031.99
2019-05-23T10:06:39.866Z,1031.99
2019-05-23T10:07:39.867Z,1032.01
2019-05-23T10:08:39.862Z,1032
2019-05-23T10:14:39.842Z,1031.97
2019-05-23T10:15:39.845Z,1031.99
2019-05-23T10:16:39.836Z,1031.98
2019-05-23T10:17:39.845Z,1032.04
2019-05-23T10:18:39.831Z,1032.03
2019-05-23T10:19:39.827Z,1031.97
2019-05-23T10:20:39.823Z,1031.92
2019-05-23T10:21:39.821Z,1031.87
2019-05-23T10:22:39.818Z,1031.79
2019-05-23T10:23:39.815Z,1031.8
2019-05-23T10:24:39.813Z,1031.86
2019-05-23T10:25:39.808Z,1031.77
2019-05-23T10:26:39.805Z,1031.79
2019-05-23T10:27:39.804Z,1031.78
2019-05-23T10:28:39.800Z,1031.78
2019-05-23T10:29:39.799Z,1031.81
2019-05-23T10:30:39.794Z,1031.75
2019-05-23T10:31:39.790Z,1031.72
2019-05-23T10:32:39.787Z,1031.65
2019-05-23T10:33:39.784Z,1031.65
2019-05-23T10:34:39.783Z,1031.59
2019-05-23T10:35:39.784Z,1031.62
2019-05-23T10:36:39.776Z,1031.59
2019-05-23T10:37:39.776Z,1031.52
2019-05-23T10:38:39.774Z,1031.49
2019-05-23T10:39:39.769Z,1031.51
2019-05-23T10:40:39.766Z,1031.55
2019-05-23T10:41:39.762Z,1031.59
2019-05-23T10:42:39.759Z,1031.64
2019-05-23T10:43:39.756Z,1031.64
2019-05-23T10:44:39.761Z,1031.63
2019-05-23T10:45:39.751Z,1031.59
2019-05-23T10:46:39.747Z,1031.59
2019-05-23T10:48:05.429Z,1031.58
2019-05-23T10:48:39.775Z,1031.62
2019-05-23T10:49:39.740Z,1031.51
2019-05-23T10:50:44.528Z,1031.57
2019-05-23T10:51:39.734Z,1031.5
2019-05-23T10:52:39.738Z,1031.53
2019-05-23T10:53:39.728Z,1031.53
2019-05-23T10:54:39.726Z,1031.53
2019-05-23T10:55:58.927Z,1031.58
2019-05-23T10:56:39.721Z,1031.59
2019-05-23T10:57:39.718Z,1031.53
2019-05-23T10:58:39.716Z,1031.55
2019-05-23T10:59:39.724Z,1031.51
2019-05-23T11:00:39.709Z,1031.53
2019-05-23T11:01:39.713Z,1031.51
2019-05-23T11:02:39.705Z,1031.55
2019-05-23T11:03:39.702Z,1031.5
2019-05-23T11:04:39.698Z,1031.58
2019-05-23T11:05:39.695Z,1031.56
2019-05-23T11:06:39.693Z,1031.57
2019-05-23T11:07:39.691Z,1031.52
2019-05-23T11:08:39.723Z,1031.53
2019-05-23T11:09:39.685Z,1031.6
2019-05-23T11:10:39.682Z,1031.61
2019-05-23T11:11:39.685Z,1031.63
2019-05-23T11:12:39.691Z,1031.65
2019-05-23T11:13:39.681Z,1031.63
2019-05-23T11:14:39.695Z,1031.66
2019-05-23T11:15:39.672Z,1031.66
2019-05-23T11:16:39.664Z,1031.58
2019-05-23T11:17:39.662Z,1031.54
2019-05-23T11:18:39.672Z,1031.53
2019-05-23T11:19:39.662Z,1031.44
2019-05-23T11:20:39.654Z,1031.41
2019-05-23T11:21:39.664Z,1031.43
2019-05-23T11:22:39.646Z,1031.28
2019-05-23T11:23:39.644Z,1031.3
2019-05-23T11:24:39.642Z,1031.29
2019-05-23T11:25:39.679Z,1031.23
2019-05-23T11:26:39.635Z,1031.29
2019-05-23T11:27:39.642Z,1031.2
2019-05-23T11:28:39.632Z,1031.2
2019-05-23T11:29:39.628Z,1031.18
2019-05-23T11:30:52.360Z,1031.19
2019-05-23T11:44:39.598Z,1030.88
2019-05-23T11:45:45.819Z,1030.8
